sensor_id;sensor_type;location;lat;lon;timestamp;temperature;humidity
68051;DHT22;54839;51.364;7.246;2023-05-27T00:01:23;9.70;99.90
68051;DHT22;54839;51.364;7.246;2023-05-27T00:03:48;9.90;99.90
68051;DHT22;54839;51.364;7.246;2023-05-27T00:06:14;9.70;99.90
68051;DHT22;54839;51.364;7.246;2023-05-27T00:08:40;9.70;99.90
68051;DHT22;54839;51.364;7.246;2023-05-27T00:11:05;9.70;99.90
68051;DHT22;54839;51.364;7.246;2023-05-27T00:13:31;9.70;99.90
68051;DHT22;54839;51.364;7.246;2023-05-27T00:15:56;9.60;99.90
68051;DHT22;54839;51.364;7.246;2023-05-27T00:18:22;9.60;99.90
68051;DHT22;54839;51.364;7.246;2023-05-27T00:20:47;9.50;99.90
68051;DHT22;54839;51.364;7.246;2023-05-27T00:23:14;9.40;99.90
68051;DHT22;54839;51.364;7.246;2023-05-27T00:25:39;9.50;99.90
68051;DHT22;54839;51.364;7.246;2023-05-27T00:28:05;9.40;99.90
68051;DHT22;54839;51.364;7.246;2023-05-27T00:30:30;9.40;99.90
68051;DHT22;54839;51.364;7.246;2023-05-27T00:32:57;9.40;99.90
68051;DHT22;54839;51.364;7.246;2023-05-27T00:35:23;9.30;99.90
68051;DHT22;54839;51.364;7.246;2023-05-27T00:37:48;9.20;99.90
68051;DHT22;54839;51.364;7.246;2023-05-27T00:40:15;9.20;99.90
68051;DHT22;54839;51.364;7.246;2023-05-27T00:42:42;9.30;99.90
68051;DHT22;54839;51.364;7.246;2023-05-27T00:45:08;9.20;99.90
68051;DHT22;54839;51.364;7.246;2023-05-27T00:47:34;9.20;99.90
68051;DHT22;54839;51.364;7.246;2023-05-27T00:50:00;9.20;99.90
68051;DHT22;54839;51.364;7.246;2023-05-27T00:52:26;9.20;99.90
68051;DHT22;54839;51.364;7.246;2023-05-27T00:54:52;9.00;99.90
68051;DHT22;54839;51.364;7.246;2023-05-27T00:57:19;9.00;99.90
68051;DHT22;54839;51.364;7.246;2023-05-27T00:59:44;9.00;99.90
68051;DHT22;54839;51.364;7.246;2023-05-27T01:02:10;8.90;99.90
68051;DHT22;54839;51.364;7.246;2023-05-27T01:04:36;8.90;99.90
68051;DHT22;54839;51.364;7.246;2023-05-27T01:14:51;8.70;99.90
68051;DHT22;54839;51.364;7.246;2023-05-27T01:17:19;8.80;99.90
68051;DHT22;54839;51.364;7.246;2023-05-27T01:19:47;8.70;99.90
68051;DHT22;54839;51.364;7.246;2023-05-27T01:22:14;8.60;99.90
68051;DHT22;54839;51.364;7.246;2023-05-27T01:24:40;8.40;99.90
68051;DHT22;54839;51.364;7.246;2023-05-27T01:27:09;8.40;99.90
68051;DHT22;54839;51.364;7.246;2023-05-27T01:29:39;8.50;99.90
68051;DHT22;54839;51.364;7.246;2023-05-27T01:32:15;8.40;99.90
68051;DHT22;54839;51.364;7.246;2023-05-27T01:34:51;8.40;99.90
68051;DHT22;54839;51.364;7.246;2023-05-27T01:37:19;8.30;99.90
68051;DHT22;54839;51.364;7.246;2023-05-27T01:39:47;8.30;99.90
68051;DHT22;54839;51.364;7.246;2023-05-27T01:42:14;8.20;99.90
68051;DHT22;54839;51.364;7.246;2023-05-27T01:44:42;8.20;99.90
68051;DHT22;54839;51.364;7.246;2023-05-27T01:47:08;8.30;99.90
68051;DHT22;54839;51.364;7.246;2023-05-27T01:49:33;8.30;99.90
68051;DHT22;54839;51.364;7.246;2023-05-27T01:52:00;8.30;99.90
68051;DHT22;54839;51.364;7.246;2023-05-27T01:54:26;8.20;99.90
68051;DHT22;54839;51.364;7.246;2023-05-27T01:56:52;8.30;99.90
68051;DHT22;54839;51.364;7.246;2023-05-27T01:59:17;8.20;99.90
68051;DHT22;54839;51.364;7.246;2023-05-27T02:01:43;8.00;99.90
68051;DHT22;54839;51.364;7.246;2023-05-27T02:04:08;8.00;99.90
68051;DHT22;54839;51.364;7.246;2023-05-27T02:06:34;8.00;99.90
68051;DHT22;54839;51.364;7.246;2023-05-27T02:08:59;8.10;99.90
68051;DHT22;54839;51.364;7.246;2023-05-27T02:11:25;8.00;99.90
68051;DHT22;54839;51.364;7.246;2023-05-27T02:13:51;8.00;99.90
68051;DHT22;54839;51.364;7.246;2023-05-27T02:16:17;8.00;99.90
68051;DHT22;54839;51.364;7.246;2023-05-27T02:18:48;7.90;99.90
68051;DHT22;54839;51.364;7.246;2023-05-27T02:21:17;8.00;99.90
68051;DHT22;54839;51.364;7.246;2023-05-27T02:23:42;7.90;99.90
68051;DHT22;54839;51.364;7.246;2023-05-27T02:26:08;8.00;99.90
68051;DHT22;54839;51.364;7.246;2023-05-27T02:28:33;8.00;99.90
68051;DHT22;54839;51.364;7.246;2023-05-27T02:30:59;7.90;99.90
68051;DHT22;54839;51.364;7.246;2023-05-27T02:33:25;7.90;99.90
68051;DHT22;54839;51.364;7.246;2023-05-27T02:35:51;8.00;99.90
68051;DHT22;54839;51.364;7.246;2023-05-27T02:38:16;7.80;99.90
68051;DHT22;54839;51.364;7.246;2023-05-27T02:40:42;7.80;99.90
68051;DHT22;54839;51.364;7.246;2023-05-27T02:43:07;7.80;99.90
68051;DHT22;54839;51.364;7.246;2023-05-27T02:45:33;7.80;99.90
68051;DHT22;54839;51.364;7.246;2023-05-27T02:47:59;7.80;99.90
68051;DHT22;54839;51.364;7.246;2023-05-27T02:50:26;7.80;99.90
68051;DHT22;54839;51.364;7.246;2023-05-27T02:52:52;7.70;99.90
68051;DHT22;54839;51.364;7.246;2023-05-27T02:55:18;7.60;99.90
68051;DHT22;54839;51.364;7.246;2023-05-27T02:57:43;7.70;99.90
68051;DHT22;54839;51.364;7.246;2023-05-27T03:00:09;7.60;99.90
68051;DHT22;54839;51.364;7.246;2023-05-27T03:02:35;7.60;99.90
68051;DHT22;54839;51.364;7.246;2023-05-27T03:05:01;7.60;99.90
68051;DHT22;54839;51.364;7.246;2023-05-27T03:07:27;7.50;99.90
68051;DHT22;54839;51.364;7.246;2023-05-27T03:09:55;7.40;99.90
68051;DHT22;54839;51.364;7.246;2023-05-27T03:12:21;7.40;99.90
68051;DHT22;54839;51.364;7.246;2023-05-27T03:14:47;7.20;99.90
68051;DHT22;54839;51.364;7.246;2023-05-27T03:17:12;7.10;99.90
68051;DHT22;54839;51.364;7.246;2023-05-27T03:19:38;7.00;99.90
68051;DHT22;54839;51.364;7.246;2023-05-27T03:22:04;7.10;99.90
68051;DHT22;54839;51.364;7.246;2023-05-27T03:24:30;7.00;99.90
68051;DHT22;54839;51.364;7.246;2023-05-27T03:26:55;7.10;99.90
68051;DHT22;54839;51.364;7.246;2023-05-27T03:29:21;7.20;99.90
68051;DHT22;54839;51.364;7.246;2023-05-27T03:31:46;7.20;99.90
68051;DHT22;54839;51.364;7.246;2023-05-27T03:34:12;7.30;99.90
68051;DHT22;54839;51.364;7.246;2023-05-27T03:36:37;7.20;99.90
68051;DHT22;54839;51.364;7.246;2023-05-27T03:39:03;7.20;99.90
68051;DHT22;54839;51.364;7.246;2023-05-27T03:41:30;7.10;99.90
68051;DHT22;54839;51.364;7.246;2023-05-27T03:43:56;7.00;99.90
68051;DHT22;54839;51.364;7.246;2023-05-27T03:46:22;7.00;99.90
68051;DHT22;54839;51.364;7.246;2023-05-27T03:48:47;7.10;99.90
68051;DHT22;54839;51.364;7.246;2023-05-27T03:51:13;7.10;99.90
68051;DHT22;54839;51.364;7.246;2023-05-27T03:53:39;7.00;99.90
68051;DHT22;54839;51.364;7.246;2023-05-27T03:56:05;7.10;99.90
68051;DHT22;54839;51.364;7.246;2023-05-27T03:58:31;7.00;99.90
68051;DHT22;54839;51.364;7.246;2023-05-27T04:00:56;7.00;99.90
68051;DHT22;54839;51.364;7.246;2023-05-27T04:03:22;7.00;99.90
68051;DHT22;54839;51.364;7.246;2023-05-27T04:05:47;7.00;99.90
68051;DHT22;54839;51.364;7.246;2023-05-27T04:08:13;6.90;99.90
68051;DHT22;54839;51.364;7.246;2023-05-27T04:10:39;6.90;99.90
68051;DHT22;54839;51.364;7.246;2023-05-27T04:13:04;7.00;99.90
68051;DHT22;54839;51.364;7.246;2023-05-27T04:15:30;7.10;99.90
68051;DHT22;54839;51.364;7.246;2023-05-27T04:17:56;7.20;99.90
68051;DHT22;54839;51.364;7.246;2023-05-27T04:20:22;7.30;99.90
68051;DHT22;54839;51.364;7.246;2023-05-27T04:22:47;7.40;99.90
68051;DHT22;54839;51.364;7.246;2023-05-27T04:25:13;7.40;99.90
68051;DHT22;54839;51.364;7.246;2023-05-27T04:27:38;7.40;99.90
68051;DHT22;54839;51.364;7.246;2023-05-27T04:30:05;7.50;99.90
68051;DHT22;54839;51.364;7.246;2023-05-27T04:32:32;7.40;99.90
68051;DHT22;54839;51.364;7.246;2023-05-27T04:35:06;7.60;99.90
68051;DHT22;54839;51.364;7.246;2023-05-27T04:37:33;7.60;99.90
68051;DHT22;54839;51.364;7.246;2023-05-27T04:39:59;7.70;99.90
68051;DHT22;54839;51.364;7.246;2023-05-27T04:42:25;7.70;99.90
68051;DHT22;54839;51.364;7.246;2023-05-27T04:44:50;7.80;99.90
68051;DHT22;54839;51.364;7.246;2023-05-27T04:47:16;7.90;99.90
68051;DHT22;54839;51.364;7.246;2023-05-27T04:49:42;7.80;99.90
68051;DHT22;54839;51.364;7.246;2023-05-27T04:52:07;7.90;99.90
68051;DHT22;54839;51.364;7.246;2023-05-27T04:54:33;8.00;99.90
68051;DHT22;54839;51.364;7.246;2023-05-27T04:56:59;8.10;99.90
68051;DHT22;54839;51.364;7.246;2023-05-27T04:59:24;8.10;99.90
68051;DHT22;54839;51.364;7.246;2023-05-27T05:02:00;8.20;99.90
68051;DHT22;54839;51.364;7.246;2023-05-27T05:04:38;8.20;99.90
68051;DHT22;54839;51.364;7.246;2023-05-27T05:07:04;8.20;99.90
68051;DHT22;54839;51.364;7.246;2023-05-27T05:09:30;8.40;99.90
68051;DHT22;54839;51.364;7.246;2023-05-27T05:11:55;8.40;99.90
68051;DHT22;54839;51.364;7.246;2023-05-27T05:14:21;8.50;99.90
68051;DHT22;54839;51.364;7.246;2023-05-27T05:16:46;8.50;99.90
68051;DHT22;54839;51.364;7.246;2023-05-27T05:19:12;8.60;99.90
68051;DHT22;54839;51.364;7.246;2023-05-27T05:21:38;8.60;99.90
68051;DHT22;54839;51.364;7.246;2023-05-27T05:24:03;8.70;99.90
68051;DHT22;54839;51.364;7.246;2023-05-27T05:26:29;8.70;99.90
68051;DHT22;54839;51.364;7.246;2023-05-27T05:28:55;8.80;99.90
68051;DHT22;54839;51.364;7.246;2023-05-27T05:31:20;8.80;99.90
68051;DHT22;54839;51.364;7.246;2023-05-27T05:33:46;8.90;99.90
68051;DHT22;54839;51.364;7.246;2023-05-27T05:36:11;9.00;99.90
68051;DHT22;54839;51.364;7.246;2023-05-27T05:38:37;9.00;99.90
68051;DHT22;54839;51.364;7.246;2023-05-27T05:41:03;9.10;99.90
68051;DHT22;54839;51.364;7.246;2023-05-27T05:43:29;9.10;99.90
68051;DHT22;54839;51.364;7.246;2023-05-27T05:45:54;9.20;99.90
68051;DHT22;54839;51.364;7.246;2023-05-27T05:48:20;9.30;99.90
68051;DHT22;54839;51.364;7.246;2023-05-27T05:50:45;9.40;99.90
68051;DHT22;54839;51.364;7.246;2023-05-27T05:53:11;9.50;99.90
68051;DHT22;54839;51.364;7.246;2023-05-27T05:55:37;9.60;99.90
68051;DHT22;54839;51.364;7.246;2023-05-27T05:58:03;9.70;99.90
68051;DHT22;54839;51.364;7.246;2023-05-27T06:00:28;9.80;99.90
68051;DHT22;54839;51.364;7.246;2023-05-27T06:02:54;9.80;99.90
68051;DHT22;54839;51.364;7.246;2023-05-27T06:05:19;9.90;99.90
68051;DHT22;54839;51.364;7.246;2023-05-27T06:07:47;10.00;99.90
68051;DHT22;54839;51.364;7.246;2023-05-27T06:10:13;10.10;99.90
68051;DHT22;54839;51.364;7.246;2023-05-27T06:12:38;10.20;99.90
68051;DHT22;54839;51.364;7.246;2023-05-27T06:15:04;10.30;99.90
68051;DHT22;54839;51.364;7.246;2023-05-27T06:17:30;10.40;99.90
68051;DHT22;54839;51.364;7.246;2023-05-27T06:19:55;10.30;99.90
68051;DHT22;54839;51.364;7.246;2023-05-27T06:22:21;10.30;99.90
68051;DHT22;54839;51.364;7.246;2023-05-27T06:24:46;10.30;99.90
68051;DHT22;54839;51.364;7.246;2023-05-27T06:27:12;10.60;99.90
68051;DHT22;54839;51.364;7.246;2023-05-27T06:29:37;10.70;99.90
68051;DHT22;54839;51.364;7.246;2023-05-27T06:32:03;10.80;99.90
68051;DHT22;54839;51.364;7.246;2023-05-27T06:34:29;10.90;99.90
68051;DHT22;54839;51.364;7.246;2023-05-27T06:36:54;10.90;99.90
68051;DHT22;54839;51.364;7.246;2023-05-27T06:39:20;11.00;99.90
68051;DHT22;54839;51.364;7.246;2023-05-27T06:41:45;11.10;99.90
68051;DHT22;54839;51.364;7.246;2023-05-27T06:44:11;11.10;99.90
68051;DHT22;54839;51.364;7.246;2023-05-27T06:46:36;11.20;99.90
68051;DHT22;54839;51.364;7.246;2023-05-27T06:49:02;11.30;99.90
68051;DHT22;54839;51.364;7.246;2023-05-27T06:51:28;11.50;99.90
68051;DHT22;54839;51.364;7.246;2023-05-27T06:53:53;11.50;99.90
68051;DHT22;54839;51.364;7.246;2023-05-27T06:56:19;11.50;99.90
68051;DHT22;54839;51.364;7.246;2023-05-27T06:58:48;11.60;99.90
68051;DHT22;54839;51.364;7.246;2023-05-27T07:01:13;11.80;99.90
68051;DHT22;54839;51.364;7.246;2023-05-27T07:03:39;11.80;99.90
68051;DHT22;54839;51.364;7.246;2023-05-27T07:06:04;11.90;99.90
68051;DHT22;54839;51.364;7.246;2023-05-27T07:08:30;12.00;99.90
68051;DHT22;54839;51.364;7.246;2023-05-27T07:10:56;12.00;99.90
68051;DHT22;54839;51.364;7.246;2023-05-27T07:13:21;12.00;99.90
68051;DHT22;54839;51.364;7.246;2023-05-27T07:15:47;12.10;99.90
68051;DHT22;54839;51.364;7.246;2023-05-27T07:18:12;12.20;99.90
68051;DHT22;54839;51.364;7.246;2023-05-27T07:20:38;12.40;99.90
68051;DHT22;54839;51.364;7.246;2023-05-27T07:23:04;12.60;99.90
68051;DHT22;54839;51.364;7.246;2023-05-27T07:25:30;12.60;99.90
68051;DHT22;54839;51.364;7.246;2023-05-27T07:27:56;12.50;99.90
68051;DHT22;54839;51.364;7.246;2023-05-27T07:30:21;12.70;99.90
68051;DHT22;54839;51.364;7.246;2023-05-27T07:32:47;12.90;99.90
68051;DHT22;54839;51.364;7.246;2023-05-27T07:35:13;12.90;99.90
68051;DHT22;54839;51.364;7.246;2023-05-27T07:37:38;13.00;99.90
68051;DHT22;54839;51.364;7.246;2023-05-27T07:40:04;13.10;99.90
68051;DHT22;54839;51.364;7.246;2023-05-27T07:42:30;13.30;99.90
68051;DHT22;54839;51.364;7.246;2023-05-27T07:44:55;13.40;99.90
68051;DHT22;54839;51.364;7.246;2023-05-27T07:47:21;13.50;99.90
68051;DHT22;54839;51.364;7.246;2023-05-27T07:49:48;13.60;99.90
68051;DHT22;54839;51.364;7.246;2023-05-27T07:52:13;13.70;99.90
68051;DHT22;54839;51.364;7.246;2023-05-27T07:54:39;13.80;99.90
68051;DHT22;54839;51.364;7.246;2023-05-27T07:57:04;13.90;99.90
68051;DHT22;54839;51.364;7.246;2023-05-27T07:59:31;14.00;99.90
68051;DHT22;54839;51.364;7.246;2023-05-27T08:01:57;14.20;99.90
68051;DHT22;54839;51.364;7.246;2023-05-27T08:04:22;14.20;99.90
68051;DHT22;54839;51.364;7.246;2023-05-27T08:06:48;14.20;99.90
68051;DHT22;54839;51.364;7.246;2023-05-27T08:09:13;14.40;99.90
68051;DHT22;54839;51.364;7.246;2023-05-27T08:11:39;14.50;99.90
68051;DHT22;54839;51.364;7.246;2023-05-27T08:14:04;14.60;99.90
68051;DHT22;54839;51.364;7.246;2023-05-27T08:16:30;14.70;99.90
68051;DHT22;54839;51.364;7.246;2023-05-27T08:18:55;14.70;99.90
68051;DHT22;54839;51.364;7.246;2023-05-27T08:21:21;14.70;99.90
68051;DHT22;54839;51.364;7.246;2023-05-27T08:23:47;14.90;99.90
68051;DHT22;54839;51.364;7.246;2023-05-27T08:26:12;14.90;99.90
68051;DHT22;54839;51.364;7.246;2023-05-27T08:28:38;15.00;99.90
68051;DHT22;54839;51.364;7.246;2023-05-27T08:31:04;15.20;99.90
68051;DHT22;54839;51.364;7.246;2023-05-27T08:33:29;15.10;99.90
68051;DHT22;54839;51.364;7.246;2023-05-27T08:35:56;15.20;99.90
68051;DHT22;54839;51.364;7.246;2023-05-27T08:38:22;15.30;99.90
68051;DHT22;54839;51.364;7.246;2023-05-27T08:40:48;15.30;99.90
68051;DHT22;54839;51.364;7.246;2023-05-27T08:43:14;15.40;99.90
68051;DHT22;54839;51.364;7.246;2023-05-27T08:45:40;15.50;99.90
68051;DHT22;54839;51.364;7.246;2023-05-27T08:48:08;15.70;99.90
68051;DHT22;54839;51.364;7.246;2023-05-27T08:50:34;15.80;99.90
68051;DHT22;54839;51.364;7.246;2023-05-27T08:53:00;15.80;99.90
68051;DHT22;54839;51.364;7.246;2023-05-27T08:55:29;15.80;99.90
68051;DHT22;54839;51.364;7.246;2023-05-27T08:57:57;16.10;99.90
68051;DHT22;54839;51.364;7.246;2023-05-27T09:00:24;16.10;99.90
68051;DHT22;54839;51.364;7.246;2023-05-27T09:02:50;16.00;99.90
68051;DHT22;54839;51.364;7.246;2023-05-27T09:05:16;16.10;99.90
68051;DHT22;54839;51.364;7.246;2023-05-27T09:07:43;16.10;99.90
68051;DHT22;54839;51.364;7.246;2023-05-27T09:10:09;16.20;99.90
68051;DHT22;54839;51.364;7.246;2023-05-27T09:12:35;16.30;99.90
68051;DHT22;54839;51.364;7.246;2023-05-27T09:15:02;16.40;99.90
68051;DHT22;54839;51.364;7.246;2023-05-27T09:17:29;16.60;99.90
68051;DHT22;54839;51.364;7.246;2023-05-27T09:19:55;16.60;99.90
68051;DHT22;54839;51.364;7.246;2023-05-27T09:22:21;16.70;99.90
68051;DHT22;54839;51.364;7.246;2023-05-27T09:24:48;16.80;99.90
68051;DHT22;54839;51.364;7.246;2023-05-27T09:27:14;16.70;99.90
68051;DHT22;54839;51.364;7.246;2023-05-27T09:29:39;16.90;99.90
68051;DHT22;54839;51.364;7.246;2023-05-27T09:32:06;17.00;99.90
68051;DHT22;54839;51.364;7.246;2023-05-27T09:34:38;17.00;99.90
68051;DHT22;54839;51.364;7.246;2023-05-27T09:37:04;17.00;99.90
68051;DHT22;54839;51.364;7.246;2023-05-27T09:39:30;17.00;99.90
68051;DHT22;54839;51.364;7.246;2023-05-27T09:42:00;17.20;99.90
68051;DHT22;54839;51.364;7.246;2023-05-27T09:44:31;17.30;99.90
68051;DHT22;54839;51.364;7.246;2023-05-27T09:47:03;17.40;99.90
68051;DHT22;54839;51.364;7.246;2023-05-27T09:49:32;17.50;99.90
68051;DHT22;54839;51.364;7.246;2023-05-27T09:52:01;17.70;99.90
68051;DHT22;54839;51.364;7.246;2023-05-27T09:54:26;17.60;99.90
68051;DHT22;54839;51.364;7.246;2023-05-27T09:56:52;17.60;99.90
68051;DHT22;54839;51.364;7.246;2023-05-27T09:59:19;17.70;99.90
68051;DHT22;54839;51.364;7.246;2023-05-27T10:01:45;17.70;99.90
68051;DHT22;54839;51.364;7.246;2023-05-27T10:04:14;17.80;99.90
68051;DHT22;54839;51.364;7.246;2023-05-27T10:06:40;17.90;99.90
68051;DHT22;54839;51.364;7.246;2023-05-27T10:09:06;18.10;99.90
68051;DHT22;54839;51.364;7.246;2023-05-27T10:11:33;18.10;99.90
68051;DHT22;54839;51.364;7.246;2023-05-27T10:14:03;18.10;99.90
68051;DHT22;54839;51.364;7.246;2023-05-27T10:16:29;18.20;99.90
68051;DHT22;54839;51.364;7.246;2023-05-27T10:18:56;18.30;99.90
68051;DHT22;54839;51.364;7.246;2023-05-27T10:21:23;18.50;99.90
68051;DHT22;54839;51.364;7.246;2023-05-27T10:23:58;18.40;99.90
68051;DHT22;54839;51.364;7.246;2023-05-27T10:26:39;18.50;99.90
68051;DHT22;54839;51.364;7.246;2023-05-27T10:29:11;18.60;99.90
68051;DHT22;54839;51.364;7.246;2023-05-27T10:31:47;18.70;99.90
68051;DHT22;54839;51.364;7.246;2023-05-27T10:34:13;18.50;99.90
68051;DHT22;54839;51.364;7.246;2023-05-27T10:36:39;18.60;99.90
68051;DHT22;54839;51.364;7.246;2023-05-27T10:39:12;18.60;99.90
68051;DHT22;54839;51.364;7.246;2023-05-27T10:41:42;18.90;99.90
68051;DHT22;54839;51.364;7.246;2023-05-27T10:44:08;18.80;99.90
68051;DHT22;54839;51.364;7.246;2023-05-27T10:46:42;18.80;99.90
68051;DHT22;54839;51.364;7.246;2023-05-27T10:49:23;18.90;99.90
68051;DHT22;54839;51.364;7.246;2023-05-27T10:51:50;19.00;99.90
68051;DHT22;54839;51.364;7.246;2023-05-27T10:54:17;19.20;99.90
68051;DHT22;54839;51.364;7.246;2023-05-27T10:56:49;19.10;99.90
68051;DHT22;54839;51.364;7.246;2023-05-27T10:59:22;19.10;99.90
68051;DHT22;54839;51.364;7.246;2023-05-27T11:01:52;19.40;99.90
68051;DHT22;54839;51.364;7.246;2023-05-27T11:04:19;19.30;99.90
68051;DHT22;54839;51.364;7.246;2023-05-27T11:06:58;19.40;99.90
68051;DHT22;54839;51.364;7.246;2023-05-27T11:09:25;19.30;99.90
68051;DHT22;54839;51.364;7.246;2023-05-27T11:11:50;19.20;99.90
68051;DHT22;54839;51.364;7.246;2023-05-27T11:14:16;19.30;99.90
68051;DHT22;54839;51.364;7.246;2023-05-27T11:16:49;19.30;99.90
68051;DHT22;54839;51.364;7.246;2023-05-27T11:19:17;19.30;99.90
68051;DHT22;54839;51.364;7.246;2023-05-27T11:21:44;19.40;99.90
68051;DHT22;54839;51.364;7.246;2023-05-27T11:24:20;19.50;99.90
68051;DHT22;54839;51.364;7.246;2023-05-27T11:26:47;19.80;99.90
68051;DHT22;54839;51.364;7.246;2023-05-27T11:29:14;19.80;99.90
68051;DHT22;54839;51.364;7.246;2023-05-27T11:31:40;19.80;99.90
68051;DHT22;54839;51.364;7.246;2023-05-27T11:34:13;19.90;99.90
68051;DHT22;54839;51.364;7.246;2023-05-27T11:36:44;19.90;99.90
68051;DHT22;54839;51.364;7.246;2023-05-27T11:39:11;19.80;99.90
68051;DHT22;54839;51.364;7.246;2023-05-27T11:41:48;19.80;99.90
68051;DHT22;54839;51.364;7.246;2023-05-27T11:44:15;20.00;99.90
68051;DHT22;54839;51.364;7.246;2023-05-27T11:46:43;20.00;99.90
68051;DHT22;54839;51.364;7.246;2023-05-27T11:49:10;20.10;99.90
68051;DHT22;54839;51.364;7.246;2023-05-27T11:51:47;20.20;99.90
68051;DHT22;54839;51.364;7.246;2023-05-27T11:54:19;20.50;99.90
68051;DHT22;54839;51.364;7.246;2023-05-27T11:56:46;20.60;99.90
68051;DHT22;54839;51.364;7.246;2023-05-27T11:59:12;20.60;99.90
68051;DHT22;54839;51.364;7.246;2023-05-27T12:01:39;20.60;99.90
68051;DHT22;54839;51.364;7.246;2023-05-27T12:04:05;20.60;99.90
68051;DHT22;54839;51.364;7.246;2023-05-27T12:06:31;20.80;99.90
68051;DHT22;54839;51.364;7.246;2023-05-27T12:08:57;20.80;99.90
68051;DHT22;54839;51.364;7.246;2023-05-27T12:11:22;21.00;99.90
68051;DHT22;54839;51.364;7.246;2023-05-27T12:13:48;20.90;99.90
68051;DHT22;54839;51.364;7.246;2023-05-27T12:16:14;20.90;99.90
68051;DHT22;54839;51.364;7.246;2023-05-27T12:18:40;20.90;99.90
68051;DHT22;54839;51.364;7.246;2023-05-27T12:21:07;21.00;99.90
68051;DHT22;54839;51.364;7.246;2023-05-27T12:23:33;21.20;99.90
68051;DHT22;54839;51.364;7.246;2023-05-27T12:25:58;21.20;99.90
68051;DHT22;54839;51.364;7.246;2023-05-27T12:28:25;21.20;99.90
68051;DHT22;54839;51.364;7.246;2023-05-27T12:30:51;21.30;99.90
68051;DHT22;54839;51.364;7.246;2023-05-27T12:33:17;21.30;99.90
68051;DHT22;54839;51.364;7.246;2023-05-27T12:35:42;21.70;99.90
68051;DHT22;54839;51.364;7.246;2023-05-27T12:38:08;24.40;99.90
68051;DHT22;54839;51.364;7.246;2023-05-27T12:40:33;26.20;99.90
68051;DHT22;54839;51.364;7.246;2023-05-27T12:42:59;27.60;99.00
68051;DHT22;54839;51.364;7.246;2023-05-27T12:45:25;28.90;96.20
68051;DHT22;54839;51.364;7.246;2023-05-27T12:47:51;28.70;92.90
68051;DHT22;54839;51.364;7.246;2023-05-27T12:50:17;29.00;91.10
68051;DHT22;54839;51.364;7.246;2023-05-27T12:52:43;29.40;90.20
68051;DHT22;54839;51.364;7.246;2023-05-27T12:55:15;29.60;87.30
68051;DHT22;54839;51.364;7.246;2023-05-27T12:57:43;29.00;84.60
68051;DHT22;54839;51.364;7.246;2023-05-27T13:00:09;29.40;83.10
68051;DHT22;54839;51.364;7.246;2023-05-27T13:02:35;30.40;80.50
68051;DHT22;54839;51.364;7.246;2023-05-27T13:05:02;31.40;78.00
68051;DHT22;54839;51.364;7.246;2023-05-27T13:07:28;32.30;75.30
68051;DHT22;54839;51.364;7.246;2023-05-27T13:09:54;33.20;75.00
68051;DHT22;54839;51.364;7.246;2023-05-27T13:12:21;33.00;69.80
68051;DHT22;54839;51.364;7.246;2023-05-27T13:14:47;33.80;66.60
68051;DHT22;54839;51.364;7.246;2023-05-27T13:17:13;34.20;64.90
68051;DHT22;54839;51.364;7.246;2023-05-27T13:19:39;34.90;61.50
68051;DHT22;54839;51.364;7.246;2023-05-27T13:22:04;36.50;58.80
68051;DHT22;54839;51.364;7.246;2023-05-27T13:24:30;35.20;57.20
68051;DHT22;54839;51.364;7.246;2023-05-27T13:26:56;34.50;57.20
68051;DHT22;54839;51.364;7.246;2023-05-27T13:29:21;34.20;58.10
68051;DHT22;54839;51.364;7.246;2023-05-27T13:31:47;35.40;55.50
68051;DHT22;54839;51.364;7.246;2023-05-27T13:34:12;36.00;54.80
68051;DHT22;54839;51.364;7.246;2023-05-27T13:36:38;36.00;54.10
68051;DHT22;54839;51.364;7.246;2023-05-27T13:39:03;36.20;53.10
68051;DHT22;54839;51.364;7.246;2023-05-27T13:41:29;35.60;53.40
68051;DHT22;54839;51.364;7.246;2023-05-27T13:43:54;34.90;53.50
68051;DHT22;54839;51.364;7.246;2023-05-27T13:46:20;35.30;54.30
68051;DHT22;54839;51.364;7.246;2023-05-27T13:48:45;35.90;52.20
68051;DHT22;54839;51.364;7.246;2023-05-27T13:51:11;36.00;52.00
68051;DHT22;54839;51.364;7.246;2023-05-27T13:53:37;36.20;52.00
68051;DHT22;54839;51.364;7.246;2023-05-27T13:56:02;35.20;51.00
68051;DHT22;54839;51.364;7.246;2023-05-27T13:58:27;34.90;51.00
68051;DHT22;54839;51.364;7.246;2023-05-27T14:00:54;34.40;51.70
68051;DHT22;54839;51.364;7.246;2023-05-27T14:03:20;35.30;51.50
68051;DHT22;54839;51.364;7.246;2023-05-27T14:05:46;35.00;50.70
68051;DHT22;54839;51.364;7.246;2023-05-27T14:08:11;36.60;50.10
68051;DHT22;54839;51.364;7.246;2023-05-27T14:10:37;36.20;50.40
68051;DHT22;54839;51.364;7.246;2023-05-27T14:13:02;36.00;49.60
68051;DHT22;54839;51.364;7.246;2023-05-27T14:15:30;36.00;49.60
68051;DHT22;54839;51.364;7.246;2023-05-27T14:17:57;35.10;49.90
68051;DHT22;54839;51.364;7.246;2023-05-27T14:20:22;35.10;49.90
68051;DHT22;54839;51.364;7.246;2023-05-27T14:22:48;35.60;48.90
68051;DHT22;54839;51.364;7.246;2023-05-27T14:25:14;35.50;48.70
68051;DHT22;54839;51.364;7.246;2023-05-27T14:27:42;34.20;48.30
68051;DHT22;54839;51.364;7.246;2023-05-27T14:30:08;35.50;49.10
68051;DHT22;54839;51.364;7.246;2023-05-27T14:32:34;35.80;48.40
68051;DHT22;54839;51.364;7.246;2023-05-27T14:34:59;34.80;48.50
68051;DHT22;54839;51.364;7.246;2023-05-27T14:37:25;34.40;49.40
68051;DHT22;54839;51.364;7.246;2023-05-27T14:39:51;34.30;48.90
68051;DHT22;54839;51.364;7.246;2023-05-27T14:42:20;34.40;48.50
68051;DHT22;54839;51.364;7.246;2023-05-27T14:44:45;35.30;48.90
68051;DHT22;54839;51.364;7.246;2023-05-27T14:47:11;34.80;48.20
68051;DHT22;54839;51.364;7.246;2023-05-27T14:49:37;34.80;48.50
68051;DHT22;54839;51.364;7.246;2023-05-27T14:52:03;34.90;48.30
68051;DHT22;54839;51.364;7.246;2023-05-27T14:54:29;34.90;47.60
68051;DHT22;54839;51.364;7.246;2023-05-27T14:56:54;33.30;48.30
68051;DHT22;54839;51.364;7.246;2023-05-27T14:59:20;32.90;49.00
68051;DHT22;54839;51.364;7.246;2023-05-27T15:01:50;33.80;48.90
68051;DHT22;54839;51.364;7.246;2023-05-27T15:04:15;34.90;47.00
68051;DHT22;54839;51.364;7.246;2023-05-27T15:06:41;36.60;47.50
68051;DHT22;54839;51.364;7.246;2023-05-27T15:09:06;35.40;46.80
68051;DHT22;54839;51.364;7.246;2023-05-27T15:11:33;34.90;46.90
68051;DHT22;54839;51.364;7.246;2023-05-27T15:14:01;34.80;47.40
68051;DHT22;54839;51.364;7.246;2023-05-27T15:16:27;34.60;47.20
68051;DHT22;54839;51.364;7.246;2023-05-27T15:18:53;34.60;46.90
68051;DHT22;54839;51.364;7.246;2023-05-27T15:21:18;35.20;46.90
68051;DHT22;54839;51.364;7.246;2023-05-27T15:23:44;35.50;46.40
68051;DHT22;54839;51.364;7.246;2023-05-27T15:26:09;35.10;46.70
68051;DHT22;54839;51.364;7.246;2023-05-27T15:28:35;34.60;46.20
68051;DHT22;54839;51.364;7.246;2023-05-27T15:31:00;34.30;46.90
68051;DHT22;54839;51.364;7.246;2023-05-27T15:33:26;35.00;46.10
68051;DHT22;54839;51.364;7.246;2023-05-27T15:35:52;33.90;46.20
68051;DHT22;54839;51.364;7.246;2023-05-27T15:38:17;33.80;47.70
68051;DHT22;54839;51.364;7.246;2023-05-27T15:40:43;34.90;46.70